createdAt,value
2018-12-06T00:02:09.006Z,1.40
2018-12-06T00:04:37.732Z,1.40
2018-12-06T00:07:06.523Z,1.40
2018-12-06T00:09:35.383Z,1.40
2018-12-06T00:12:04.189Z,1.40
2018-12-06T00:14:33.249Z,1.40
2018-12-06T00:17:01.983Z,1.40
2018-12-06T00:19:30.607Z,1.50
2018-12-06T00:21:59.804Z,1.40
2018-12-06T00:24:29.007Z,1.40
2018-12-06T00:26:57.878Z,1.50
2018-12-06T00:29:26.802Z,1.50
2018-12-06T00:31:55.717Z,1.40
2018-12-06T00:34:24.199Z,1.40
2018-12-06T00:36:53.001Z,1.40
2018-12-06T00:39:22.043Z,1.30
2018-12-06T00:41:50.892Z,1.30
2018-12-06T00:44:19.652Z,1.20
2018-12-06T00:46:50.029Z,1.10
2018-12-06T00:49:18.684Z,1.10
2018-12-06T00:51:47.616Z,1.00
2018-12-06T00:54:16.527Z,1.00
2018-12-06T00:56:45.487Z,1.00
2018-12-06T00:59:14.210Z,0.90
2018-12-06T01:01:42.901Z,0.80
2018-12-06T01:04:11.685Z,0.80
2018-12-06T01:06:40.338Z,0.80
2018-12-06T01:09:09.022Z,0.80
2018-12-06T01:11:40.308Z,0.70
2018-12-06T01:14:09.095Z,0.70
2018-12-06T01:16:37.915Z,0.70
2018-12-06T01:19:07.177Z,0.70
2018-12-06T01:21:36.224Z,0.70
2018-12-06T01:24:05.417Z,0.70
2018-12-06T01:26:34.216Z,0.60
2018-12-06T01:29:02.890Z,0.60
2018-12-06T01:31:31.667Z,0.60
2018-12-06T01:34:00.881Z,0.50
2018-12-06T01:36:29.820Z,0.50
2018-12-06T01:38:58.503Z,0.40
2018-12-06T01:41:27.042Z,0.40
2018-12-06T01:43:55.887Z,0.30
2018-12-06T01:46:24.622Z,0.30
2018-12-06T01:48:53.290Z,0.30
2018-12-06T01:51:22.156Z,0.30
2018-12-06T01:53:51.253Z,0.20
2018-12-06T01:56:19.974Z,0.20
2018-12-06T01:58:48.567Z,0.20
2018-12-06T02:01:17.635Z,0.10
2018-12-06T02:03:46.210Z,0.10
2018-12-06T02:06:15.036Z,0.00
2018-12-06T02:08:43.585Z,0.00
2018-12-06T02:11:12.325Z,0.00
2018-12-06T02:13:40.995Z,-0.10
2018-12-06T02:16:09.840Z,0.00
2018-12-06T02:18:38.664Z,0.00
2018-12-06T02:21:07.279Z,-0.10
2018-12-06T02:23:36.010Z,0.00
2018-12-06T02:26:04.590Z,0.00
2018-12-06T02:28:34.430Z,0.00
2018-12-06T02:31:03.466Z,0.00
2018-12-06T02:33:32.383Z,0.00
2018-12-06T02:36:01.223Z,0.00
2018-12-06T02:38:30.063Z,0.00
2018-12-06T02:41:00.119Z,-0.10
2018-12-06T02:43:30.028Z,-0.10
2018-12-06T02:45:58.982Z,0.00
2018-12-06T02:48:27.883Z,0.00
2018-12-06T02:50:56.597Z,0.00
2018-12-06T02:53:25.743Z,0.00
2018-12-06T02:55:54.894Z,-0.10
2018-12-06T02:58:23.699Z,-0.10
2018-12-06T03:00:52.810Z,-0.10
2018-12-06T03:03:21.770Z,-0.10
2018-12-06T03:05:50.694Z,-0.10
2018-12-06T03:08:19.448Z,0.00
2018-12-06T03:10:48.328Z,-0.10
2018-12-06T03:13:18.065Z,0.00
2018-12-06T03:15:47.041Z,-0.10
2018-12-06T03:18:16.820Z,-0.10
2018-12-06T03:20:45.406Z,-0.10
2018-12-06T03:23:14.975Z,0.00
2018-12-06T03:25:43.629Z,0.00
2018-12-06T03:28:12.482Z,-0.10
2018-12-06T03:30:41.363Z,0.00
2018-12-06T03:33:10.169Z,0.00
2018-12-06T03:35:38.716Z,0.00
2018-12-06T03:38:08.018Z,0.00
2018-12-06T03:40:36.734Z,0.00
2018-12-06T03:43:05.435Z,0.00
2018-12-06T03:45:34.303Z,0.10
2018-12-06T03:48:03.284Z,0.00
2018-12-06T03:50:32.134Z,0.10
2018-12-06T03:53:00.786Z,0.10
2018-12-06T03:55:29.414Z,0.10
2018-12-06T03:57:58.519Z,0.10
2018-12-06T04:00:27.569Z,0.00
2018-12-06T04:02:56.567Z,0.00
2018-12-06T04:05:25.188Z,0.00
2018-12-06T04:07:54.092Z,0.00
2018-12-06T04:10:23.097Z,0.00
2018-12-06T04:12:51.880Z,0.00
2018-12-06T04:15:20.853Z,0.00
2018-12-06T04:17:49.523Z,0.00
2018-12-06T04:20:18.315Z,0.00
2018-12-06T04:22:47.301Z,0.10
2018-12-06T04:25:16.039Z,0.10
2018-12-06T04:27:45.057Z,0.10
2018-12-06T04:30:14.394Z,0.20
2018-12-06T04:32:43.721Z,0.20
2018-12-06T04:35:12.475Z,0.10
2018-12-06T04:37:41.565Z,0.10
2018-12-06T04:40:10.141Z,0.10
2018-12-06T04:42:38.750Z,0.10
2018-12-06T04:45:11.201Z,0.10
2018-12-06T04:47:40.637Z,0.00
2018-12-06T04:50:09.563Z,0.00
2018-12-06T04:52:39.213Z,-0.10
2018-12-06T04:55:08.058Z,0.00
2018-12-06T04:57:36.580Z,0.00
2018-12-06T05:00:05.866Z,0.00
2018-12-06T05:02:34.646Z,0.00
2018-12-06T05:05:03.322Z,0.00
2018-12-06T05:07:32.397Z,0.00
2018-12-06T05:10:01.499Z,0.00
2018-12-06T05:12:30.514Z,0.00
2018-12-06T05:14:59.686Z,0.00
2018-12-06T05:17:28.408Z,0.00
2018-12-06T05:19:57.713Z,-0.10
2018-12-06T05:22:26.767Z,-0.10
2018-12-06T05:24:55.639Z,-0.10
2018-12-06T05:27:24.561Z,-0.10
2018-12-06T05:29:53.616Z,-0.10
2018-12-06T05:32:29.128Z,0.00
2018-12-06T05:34:57.719Z,0.00
2018-12-06T05:37:26.446Z,-0.10
2018-12-06T05:39:55.299Z,0.00
2018-12-06T05:42:23.940Z,0.00
2018-12-06T05:44:52.638Z,-0.10
2018-12-06T05:47:21.631Z,-0.10
2018-12-06T05:49:50.464Z,-0.10
2018-12-06T05:52:22.345Z,-0.20
2018-12-06T05:54:51.407Z,-0.20
2018-12-06T05:57:20.196Z,-0.20
2018-12-06T05:59:48.877Z,-0.20
2018-12-06T06:02:17.718Z,-0.20
2018-12-06T06:04:47.384Z,-0.10
2018-12-06T06:07:15.931Z,-0.10
2018-12-06T06:09:44.550Z,-0.20
2018-12-06T06:12:13.271Z,-0.20
2018-12-06T06:14:43.737Z,-0.20
2018-12-06T06:17:12.612Z,-0.20
2018-12-06T06:19:41.826Z,-0.10
2018-12-06T06:22:10.779Z,-0.10
2018-12-06T06:24:43.931Z,0.00
2018-12-06T06:27:18.039Z,0.00
2018-12-06T06:29:47.116Z,0.00
2018-12-06T06:32:16.180Z,0.00
2018-12-06T06:34:48.468Z,0.00
2018-12-06T06:37:17.544Z,0.00
2018-12-06T06:39:46.238Z,0.00
2018-12-06T06:42:15.019Z,0.10
2018-12-06T06:44:43.634Z,0.10
2018-12-06T06:47:12.690Z,0.10
2018-12-06T06:49:42.048Z,0.10
2018-12-06T06:52:11.071Z,0.20
2018-12-06T06:54:40.031Z,0.40
2018-12-06T06:57:09.150Z,0.50
2018-12-06T06:59:39.435Z,0.60
2018-12-06T07:02:08.503Z,0.70
2018-12-06T07:04:41.898Z,0.80
2018-12-06T07:09:57.834Z,1.00
2018-12-06T07:12:26.680Z,1.10
2018-12-06T07:14:55.478Z,1.10
2018-12-06T07:17:24.608Z,1.20
2018-12-06T07:19:54.265Z,1.30
2018-12-06T07:22:23.293Z,1.30
2018-12-06T07:24:52.053Z,1.30
2018-12-06T07:27:24.188Z,1.30
2018-12-06T07:29:52.972Z,1.40
2018-12-06T07:32:21.632Z,1.50
2018-12-06T07:34:50.734Z,1.50
2018-12-06T07:37:19.406Z,1.60
2018-12-06T07:40:14.806Z,1.60
2018-12-06T07:42:44.128Z,1.60
2018-12-06T07:45:15.413Z,1.70
2018-12-06T07:47:44.883Z,1.70
2018-12-06T07:50:14.416Z,1.80
2018-12-06T07:52:44.153Z,1.80
2018-12-06T07:55:27.785Z,1.90
2018-12-06T07:57:56.808Z,1.90
2018-12-06T08:00:26.917Z,2.00
2018-12-06T08:02:55.458Z,1.90
2018-12-06T08:05:45.682Z,2.00
2018-12-06T08:08:21.894Z,2.00
2018-12-06T08:10:51.011Z,2.00
2018-12-06T08:13:21.857Z,2.10
2018-12-06T08:18:30.696Z,2.10
2018-12-06T08:21:00.107Z,2.20
2018-12-06T08:23:31.437Z,2.20
2018-12-06T08:26:00.677Z,2.30
2018-12-06T08:28:30.317Z,2.50
2018-12-06T08:31:00.438Z,2.60
2018-12-06T08:33:29.012Z,2.60
2018-12-06T08:36:03.432Z,2.70
2018-12-06T08:38:34.002Z,2.70
2018-12-06T08:41:03.657Z,2.70
2018-12-06T08:43:33.385Z,2.70
2018-12-06T08:46:20.797Z,2.80
2018-12-06T08:48:49.366Z,2.90
2018-12-06T08:51:18.100Z,3.00
2018-12-06T08:53:48.114Z,3.10
2018-12-06T08:56:16.597Z,3.20
2018-12-06T08:58:45.162Z,3.20
2018-12-06T09:01:14.439Z,3.20
2018-12-06T09:03:48.969Z,3.20
2018-12-06T09:06:17.682Z,3.20
2018-12-06T09:08:46.461Z,3.30
2018-12-06T09:11:15.125Z,3.30
2018-12-06T09:13:45.029Z,3.40
2018-12-06T09:16:16.328Z,3.40
2018-12-06T09:18:45.359Z,3.40
2018-12-06T09:21:16.063Z,3.50
2018-12-06T09:23:46.992Z,3.60
2018-12-06T09:26:16.529Z,3.60
2018-12-06T09:28:46.106Z,3.50
2018-12-06T09:31:16.446Z,3.60
2018-12-06T09:33:56.282Z,3.60
2018-12-06T09:36:25.954Z,3.70
2018-12-06T09:38:55.025Z,3.60
2018-12-06T09:41:23.933Z,3.60
2018-12-06T09:43:52.905Z,3.60
2018-12-06T09:46:21.497Z,3.50
2018-12-06T09:48:51.197Z,3.40
2018-12-06T09:51:20.178Z,3.40
2018-12-06T09:53:49.433Z,3.30
2018-12-06T09:56:18.718Z,3.30
2018-12-06T09:58:47.724Z,3.30
2018-12-06T10:01:16.494Z,3.30
2018-12-06T10:03:45.686Z,3.40
2018-12-06T10:06:14.913Z,3.50
2018-12-06T10:08:45.707Z,3.60
2018-12-06T10:11:14.726Z,3.60
2018-12-06T10:13:43.610Z,3.60
2018-12-06T10:16:12.608Z,3.70
2018-12-06T10:19:08.564Z,3.70
2018-12-06T10:21:39.791Z,3.80
2018-12-06T10:24:08.985Z,3.90
2018-12-06T10:26:38.386Z,4.00
2018-12-06T10:29:07.565Z,4.10
2018-12-06T10:31:57.742Z,4.20
2018-12-06T10:34:27.744Z,4.20
2018-12-06T10:36:56.542Z,4.20
2018-12-06T10:39:25.322Z,4.10
2018-12-06T10:41:55.293Z,4.20
2018-12-06T10:44:30.277Z,4.10
2018-12-06T10:46:59.266Z,4.10
2018-12-06T10:49:28.207Z,4.10
2018-12-06T10:51:56.897Z,4.10
2018-12-06T10:54:28.613Z,4.10
2018-12-06T10:56:57.397Z,4.10
2018-12-06T10:59:26.076Z,4.10
2018-12-06T11:02:00.334Z,4.10
2018-12-06T11:04:36.919Z,4.20
2018-12-06T11:07:07.406Z,4.10
2018-12-06T11:09:36.315Z,4.10
2018-12-06T11:12:05.358Z,4.10
2018-12-06T11:14:34.857Z,4.10
2018-12-06T11:17:03.685Z,4.20
2018-12-06T11:19:32.897Z,4.10
2018-12-06T11:22:02.250Z,4.10
2018-12-06T11:24:30.974Z,4.10
2018-12-06T11:26:59.674Z,4.10
2018-12-06T11:29:28.278Z,4.10
2018-12-06T11:31:58.745Z,4.20
2018-12-06T11:34:29.113Z,4.20
2018-12-06T11:36:58.896Z,4.40
2018-12-06T11:39:27.819Z,4.60
2018-12-06T11:41:56.726Z,4.80
2018-12-06T11:44:25.780Z,4.90
2018-12-06T11:46:54.554Z,5.10
2018-12-06T11:49:23.255Z,5.20
2018-12-06T11:51:52.423Z,5.30
2018-12-06T11:54:21.187Z,5.30
2018-12-06T11:56:51.922Z,5.40
2018-12-06T11:59:20.579Z,5.40
2018-12-06T12:01:49.276Z,5.40
2018-12-06T12:04:18.488Z,5.30
2018-12-06T12:06:47.755Z,5.30
2018-12-06T12:09:17.367Z,5.30
2018-12-06T12:11:45.930Z,5.30
2018-12-06T12:14:14.493Z,5.20
2018-12-06T12:16:43.178Z,5.20
2018-12-06T12:19:15.351Z,5.20
2018-12-06T12:21:44.098Z,5.20
2018-12-06T12:24:13.131Z,5.20
2018-12-06T12:26:41.750Z,5.20
2018-12-06T12:29:12.721Z,5.20
2018-12-06T12:31:41.359Z,5.20
2018-12-06T12:34:10.127Z,5.20
2018-12-06T12:36:39.250Z,5.20
2018-12-06T12:39:09.577Z,5.30
2018-12-06T12:41:38.376Z,5.30
2018-12-06T12:44:07.401Z,5.20
2018-12-06T12:46:36.074Z,5.30
2018-12-06T12:49:04.989Z,5.30
2018-12-06T12:51:33.684Z,5.40
2018-12-06T12:54:02.825Z,5.50
2018-12-06T12:56:31.738Z,5.50
2018-12-06T12:59:00.468Z,5.50
2018-12-06T13:01:29.070Z,5.50
2018-12-06T13:03:57.683Z,5.60
2018-12-06T13:06:27.386Z,5.60
2018-12-06T13:08:58.647Z,5.60
2018-12-06T13:11:29.048Z,5.60
2018-12-06T13:14:02.352Z,5.60
2018-12-06T13:16:32.278Z,5.50
2018-12-06T13:19:08.788Z,5.50
2018-12-06T13:21:43.106Z,5.60
2018-12-06T13:24:16.562Z,5.50
2018-12-06T13:26:53.330Z,5.50
2018-12-06T13:29:25.474Z,5.50
2018-12-06T13:31:56.518Z,5.50
2018-12-06T13:34:34.618Z,5.60
2018-12-06T13:37:13.911Z,5.70
2018-12-06T13:39:57.163Z,5.60
2018-12-06T13:42:30.935Z,5.60
2018-12-06T13:45:06.652Z,5.60
2018-12-06T13:47:37.291Z,5.60
2018-12-06T14:14:40.562Z,5.20
2018-12-06T14:17:51.961Z,5.30
2018-12-06T14:20:27.389Z,5.30
2018-12-06T14:22:56.919Z,5.10
2018-12-06T14:25:28.176Z,5.10
2018-12-06T14:27:57.517Z,5.00
2018-12-06T14:30:26.420Z,5.10
2018-12-06T14:32:56.330Z,5.10
2018-12-06T14:35:26.549Z,5.10
2018-12-06T14:37:55.620Z,5.00
2018-12-06T14:40:24.570Z,4.90
2018-12-06T14:42:55.144Z,4.90
2018-12-06T14:45:24.775Z,4.90
2018-12-06T14:47:53.972Z,5.00
2018-12-06T14:50:23.915Z,4.90
2018-12-06T14:52:55.296Z,5.00
2018-12-06T14:55:25.502Z,5.10
2018-12-06T14:58:08.579Z,5.20
2018-12-06T15:00:54.380Z,5.30
2018-12-06T15:03:24.255Z,5.30
2018-12-06T15:05:53.097Z,5.30
2018-12-06T15:08:25.667Z,5.30
2018-12-06T15:10:58.799Z,5.40
2018-12-06T15:13:28.004Z,5.30
2018-12-06T15:15:56.993Z,5.30
2018-12-06T15:18:26.047Z,5.30
2018-12-06T21:42:29.939Z,4.00
